Time;durP1;ratioP1;P1;durP2;ratioP2;P2;SDS_P1;SDS_P2;PMS_P1;PMS_P2;Temp;Humidity;BMP_temperature;BMP_pressure;BME280_temperature;BME280_humidity;BME280_pressure;Samples;Min_cycle;Max_cycle;Signal;HPM_P1;HPM_P2
2021/08/03 00:01:50;;;;;;;3.25;1.95;;;;;;;12.80;93.95;96687.47;5006913;28;20544;-64
2021/08/03 00:04:18;;;;;;;2.10;1.27;;;;;;;12.63;94.34;96690.84;4996604;28;20033;-65
2021/08/03 00:06:49;;;;;;;2.58;1.58;;;;;;;12.50;93.80;96687.59;5019373;28;20128;-65
2021/08/03 00:09:16;;;;;;;3.50;1.75;;;;;;;12.58;96.32;96688.44;5002885;28;20045;-64
2021/08/03 00:11:43;;;;;;;3.35;1.75;;;;;;;12.44;95.16;96694.59;4989599;28;20046;-64
2021/08/03 00:14:09;;;;;;;2.67;1.48;;;;;;;12.49;97.50;96687.97;5002833;28;20042;-65
2021/08/03 00:16:36;;;;;;;2.03;1.33;;;;;;;12.65;97.35;96688.50;5000531;28;20048;-65
2021/08/03 00:19:03;;;;;;;7.03;3.60;;;;;;;12.65;96.75;96690.47;5004269;28;20045;-64
2021/08/03 00:21:28;;;;;;;2.15;1.42;;;;;;;12.70;97.17;96693.66;5012062;28;20109;-64
2021/08/03 00:23:55;;;;;;;2.38;1.55;;;;;;;12.87;95.98;96692.19;5005763;28;20579;-64
2021/08/03 00:26:20;;;;;;;4.68;1.50;;;;;;;12.96;95.39;96691.88;5005692;28;20061;-64
2021/08/03 00:28:49;;;;;;;2.38;1.45;;;;;;;13.03;94.63;96686.41;5006478;28;20077;-64
2021/08/03 00:31:18;;;;;;;6.40;1.67;;;;;;;13.06;94.27;96691.16;4989715;28;20050;-65
2021/08/03 00:33:45;;;;;;;2.97;1.42;;;;;;;13.10;94.08;96693.94;5016464;28;20409;-66
2021/08/03 00:36:11;;;;;;;3.38;1.60;;;;;;;12.94;93.45;96684.00;4984878;28;20041;-65
2021/08/03 00:38:37;;;;;;;2.15;1.40;;;;;;;12.44;97.11;96678.13;4999557;28;20045;-65
2021/08/03 00:41:05;;;;;;;2.50;1.80;;;;;;;11.93;100.00;96684.31;5004718;28;20530;-65
2021/08/03 00:43:30;;;;;;;2.90;2.00;;;;;;;11.90;100.00;96688.56;5021034;28;20052;-67
2021/08/03 00:45:55;;;;;;;2.72;1.70;;;;;;;12.02;100.00;96690.28;5015230;28;20045;-66
2021/08/03 00:48:21;;;;;;;4.70;1.98;;;;;;;12.07;100.00;96687.19;4995379;28;20046;-65
2021/08/03 00:50:46;;;;;;;4.97;2.13;;;;;;;12.25;100.00;96690.13;5001061;28;20049;-66
2021/08/03 00:53:13;;;;;;;3.95;1.90;;;;;;;12.41;99.41;96678.91;4996462;28;20049;-65
2021/08/03 00:55:40;;;;;;;3.25;1.63;;;;;;;12.60;98.07;96684.16;5002670;28;20041;-64
2021/08/03 00:58:06;;;;;;;2.60;1.55;;;;;;;12.71;96.93;96683.44;4999442;28;20042;-64
2021/08/03 01:00:31;;;;;;;3.72;1.60;;;;;;;12.83;96.59;96683.16;4984457;28;20045;-65
2021/08/03 01:02:58;;;;;;;2.85;1.40;;;;;;;12.90;95.49;96676.91;5000476;28;20053;-65
2021/08/03 01:05:28;;;;;;;2.65;1.60;;;;;;;12.86;95.80;96676.88;4999110;28;20264;-65
2021/08/03 01:08:17;;;;;;;2.30;1.40;;;;;;;12.89;95.35;96675.31;4986376;28;20376;-66
2021/08/03 01:10:57;;;;;;;3.30;1.98;;;;;;;12.74;93.71;96675.22;4984833;28;20049;-66
2021/08/03 01:13:50;;;;;;;5.93;1.60;;;;;;;12.57;94.53;96679.41;4995543;28;20508;-66
2021/08/03 01:16:34;;;;;;;2.95;1.70;;;;;;;12.38;95.84;96674.16;5000624;28;20064;-64
2021/08/03 01:19:22;;;;;;;5.00;1.65;;;;;;;12.22;97.39;96675.19;5007507;28;20490;-64
2021/08/03 01:21:56;;;;;;;2.58;1.63;;;;;;;11.92;99.93;96675.28;5021720;28;20140;-65
2021/08/03 01:24:39;;;;;;;2.40;1.42;;;;;;;11.72;100.00;96671.09;5015102;28;20849;-64
2021/08/03 01:27:14;;;;;;;3.28;1.77;;;;;;;11.65;100.00;96674.56;5016367;28;20045;-65
2021/08/03 01:29:42;;;;;;;4.05;1.90;;;;;;;11.45;100.00;96668.44;5022345;28;20045;-65
2021/08/03 01:32:09;;;;;;;2.78;1.98;;;;;;;11.25;100.00;96662.31;4997867;28;20406;-64
2021/08/03 01:34:45;;;;;;;4.53;1.95;;;;;;;11.19;100.00;96675.56;5002328;28;20041;-64
2021/08/03 01:37:16;;;;;;;5.18;2.10;;;;;;;11.29;100.00;96676.88;5024449;28;20594;-64
2021/08/03 01:39:56;;;;;;;3.08;2.33;;;;;;;11.46;100.00;96678.25;5021897;28;20065;-65
2021/08/03 01:42:23;;;;;;;3.90;1.73;;;;;;;11.58;100.00;96669.00;5016740;28;20712;-65
2021/08/03 01:44:50;;;;;;;4.47;1.77;;;;;;;11.65;100.00;96661.63;5018897;28;20042;-66
2021/08/03 01:47:18;;;;;;;4.97;1.92;;;;;;;11.71;100.00;96658.56;5016143;28;20037;-66
2021/08/03 01:49:45;;;;;;;3.55;1.70;;;;;;;11.70;100.00;96657.75;5021072;28;20067;-65
2021/08/03 01:52:11;;;;;;;5.35;1.90;;;;;;;11.56;100.00;96660.31;5014075;28;20041;-65
2021/08/03 01:54:37;;;;;;;3.05;2.35;;;;;;;11.45;100.00;96662.94;5018729;28;20836;-65
2021/08/03 01:57:04;;;;;;;4.78;2.00;;;;;;;11.15;100.00;96662.97;4997385;28;20435;-64
2021/08/03 01:59:30;;;;;;;3.22;2.30;;;;;;;11.06;100.00;96664.03;5019238;28;20497;-66
2021/08/03 02:01:56;;;;;;;4.10;2.15;;;;;;;11.03;100.00;96666.72;5015485;28;20045;-65
2021/08/03 02:04:23;;;;;;;4.72;2.30;;;;;;;11.02;100.00;96659.63;5005059;28;20545;-65
2021/08/03 02:06:51;;;;;;;4.55;2.25;;;;;;;11.07;100.00;96657.41;4990540;28;20050;-65
2021/08/03 02:09:17;;;;;;;3.42;2.17;;;;;;;11.21;100.00;96654.03;5010012;28;20104;-66
2021/08/03 02:11:45;;;;;;;4.25;1.90;;;;;;;11.16;100.00;96648.09;5008563;28;20041;-65
2021/08/03 02:14:11;;;;;;;4.75;2.30;;;;;;;11.22;100.00;96643.88;5003573;28;20402;-65
2021/08/03 02:16:37;;;;;;;4.55;1.67;;;;;;;11.45;100.00;96643.75;5005484;28;20049;-66
2021/08/03 02:19:04;;;;;;;6.55;2.63;;;;;;;11.60;100.00;96641.97;5015316;28;20041;-63
2021/08/03 02:21:30;;;;;;;7.05;1.80;;;;;;;11.71;100.00;96637.41;5011932;28;20132;-65
2021/08/03 02:23:56;;;;;;;3.95;1.98;;;;;;;11.78;100.00;96642.19;5016856;28;20133;-65
2021/08/03 02:26:21;;;;;;;8.63;1.70;;;;;;;11.75;100.00;96634.69;5012072;28;20045;-65
2021/08/03 02:28:47;;;;;;;3.13;1.63;;;;;;;11.81;100.00;96625.75;4994249;28;20107;-65
2021/08/03 02:31:18;;;;;;;2.60;1.65;;;;;;;11.86;100.00;96624.59;5005834;28;20069;-64
2021/08/03 02:34:09;;;;;;;4.95;1.70;;;;;;;11.91;100.00;96618.03;5005839;28;20041;-64
2021/08/03 02:36:42;;;;;;;3.25;1.52;;;;;;;11.85;100.00;96623.81;5003297;28;20168;-65
2021/08/03 02:39:08;;;;;;;2.65;1.45;;;;;;;11.71;100.00;96618.19;5028945;28;20541;-62
2021/08/03 02:41:34;;;;;;;4.72;1.65;;;;;;;11.54;100.00;96618.78;5027311;28;20037;-65
2021/08/03 02:44:01;;;;;;;3.92;1.55;;;;;;;11.36;100.00;96621.31;5019995;28;20088;-64
2021/08/03 02:46:28;;;;;;;2.92;1.35;;;;;;;11.19;100.00;96628.94;5010882;28;20057;-64
2021/08/03 02:49:08;;;;;;;3.22;1.98;;;;;;;11.30;100.00;96629.09;5012260;28;20259;-64
2021/08/03 02:51:37;;;;;;;5.30;2.00;;;;;;;11.60;100.00;96617.28;5017339;28;20088;-65
2021/08/03 02:54:11;;;;;;;3.05;2.08;;;;;;;11.54;100.00;96618.78;5017542;28;20103;-63
2021/08/03 02:56:38;;;;;;;4.57;1.40;;;;;;;11.62;100.00;96614.97;5018459;28;20037;-67
2021/08/03 02:59:12;;;;;;;3.42;1.90;;;;;;;11.71;100.00;96615.44;4998369;28;20072;-63
2021/08/03 03:01:40;;;;;;;3.75;2.00;;;;;;;11.71;100.00;96609.97;5011164;28;20048;-64
2021/08/03 03:04:11;;;;;;;2.85;1.77;;;;;;;11.69;100.00;96611.50;4988197;28;20046;-65
2021/08/03 03:06:39;;;;;;;4.97;1.90;;;;;;;11.49;100.00;96606.19;5012454;28;20059;-65
2021/08/03 03:09:04;;;;;;;2.90;1.73;;;;;;;11.47;100.00;96600.31;5004614;28;20046;-63
2021/08/03 03:11:33;;;;;;;4.53;1.80;;;;;;;11.56;100.00;96599.97;5012850;28;20060;-65
2021/08/03 03:14:00;;;;;;;5.50;1.65;;;;;;;11.56;100.00;96595.31;5003793;28;20085;-65
2021/08/03 03:16:29;;;;;;;3.53;1.73;;;;;;;11.52;100.00;96596.41;5012118;28;20053;-65
2021/08/03 03:18:56;;;;;;;3.22;1.80;;;;;;;11.50;100.00;96594.06;5012399;28;20065;-65
2021/08/03 03:21:23;;;;;;;3.47;2.00;;;;;;;11.23;100.00;96587.88;4995141;28;20092;-65
2021/08/03 03:23:50;;;;;;;3.90;2.22;;;;;;;10.60;100.00;96592.91;4999832;28;20049;-65
2021/08/03 03:26:17;;;;;;;4.32;2.58;;;;;;;10.30;100.00;96585.41;5009113;28;20099;-65
2021/08/03 03:28:44;;;;;;;8.93;3.15;;;;;;;10.14;100.00;96601.97;5014172;28;20137;-65
2021/08/03 03:31:10;;;;;;;5.43;3.10;;;;;;;10.00;100.00;96590.78;5011833;28;20048;-64
2021/08/03 03:33:40;;;;;;;4.38;3.45;;;;;;;10.01;100.00;96594.31;5011538;28;20386;-64
2021/08/03 03:36:07;;;;;;;9.60;3.33;;;;;;;10.06;100.00;96597.53;5002547;28;20666;-65
2021/08/03 03:38:37;;;;;;;4.43;3.08;;;;;;;10.13;100.00;96600.38;5008340;28;20041;-64
2021/08/03 03:41:04;;;;;;;7.80;3.22;;;;;;;10.18;100.00;96607.50;4981883;28;20677;-65
2021/08/03 03:43:30;;;;;;;6.13;3.10;;;;;;;10.15;100.00;96602.75;5010762;28;20050;-65
2021/08/03 03:46:06;;;;;;;10.20;2.42;;;;;;;10.20;100.00;96601.66;5014306;28;20041;-66
2021/08/03 03:48:35;;;;;;;6.75;2.38;;;;;;;10.28;100.00;96609.63;5007946;28;20491;-65
2021/08/03 03:51:03;;;;;;;3.58;2.47;;;;;;;10.55;100.00;96606.13;5017476;28;20061;-66
2021/08/03 03:53:42;;;;;;;6.72;2.50;;;;;;;10.74;100.00;96603.28;5014914;28;20835;-64
2021/08/03 03:56:09;;;;;;;5.68;2.67;;;;;;;10.86;100.00;96605.81;4999005;28;20045;-65
2021/08/03 03:58:39;;;;;;;4.68;2.45;;;;;;;10.92;100.00;96605.50;5018666;28;20037;-64
2021/08/03 04:01:05;;;;;;;3.03;1.90;;;;;;;10.86;100.00;96602.28;5029995;28;20048;-64
2021/08/03 04:03:35;;;;;;;6.78;2.30;;;;;;;11.01;100.00;96603.25;5013119;28;20080;-65
2021/08/03 04:06:02;;;;;;;2.35;1.70;;;;;;;11.19;100.00;96603.50;5007359;28;20486;-65
2021/08/03 04:08:29;;;;;;;3.20;2.00;;;;;;;11.29;100.00;96603.63;5007113;28;20080;-66
2021/08/03 04:11:00;;;;;;;2.53;2.05;;;;;;;11.43;100.00;96597.53;5001652;28;20050;-65
2021/08/03 04:13:26;;;;;;;5.20;2.10;;;;;;;11.53;100.00;96598.00;5007967;28;20519;-64
2021/08/03 04:15:51;;;;;;;5.53;2.35;;;;;;;11.66;100.00;96593.84;5005531;28;20056;-65
2021/08/03 04:18:17;;;;;;;3.80;2.40;;;;;;;11.77;100.00;96607.66;5013056;28;20069;-64
2021/08/03 04:20:42;;;;;;;4.00;2.03;;;;;;;11.83;100.00;96601.47;5016106;28;20038;-65
2021/08/03 04:23:08;;;;;;;2.40;1.80;;;;;;;11.89;99.84;96598.38;5017821;28;20500;-65
2021/08/03 04:25:33;;;;;;;3.63;2.00;;;;;;;12.01;99.54;96596.19;5022980;28;20045;-65
2021/08/03 04:27:59;;;;;;;5.95;2.13;;;;;;;12.13;99.67;96595.09;5020993;28;20049;-64
2021/08/03 04:30:24;;;;;;;7.72;1.95;;;;;;;12.39;99.33;96596.09;4991222;28;20053;-65
2021/08/03 04:32:49;;;;;;;5.35;2.00;;;;;;;12.53;97.22;96595.38;5011405;28;20078;-64
2021/08/03 04:35:15;;;;;;;5.07;2.00;;;;;;;12.54;96.70;96594.22;4998353;28;20050;-65
2021/08/03 04:37:46;;;;;;;6.97;2.35;;;;;;;12.65;96.56;96599.78;5012851;28;20740;-65
2021/08/03 04:40:13;;;;;;;6.45;1.70;;;;;;;12.84;95.62;96604.22;5009605;28;20053;-64
2021/08/03 04:42:39;;;;;;;6.40;1.83;;;;;;;12.95;95.20;96597.63;5012991;28;20554;-65
2021/08/03 04:45:06;;;;;;;3.72;1.70;;;;;;;13.01;94.38;96598.03;5000657;28;20045;-65
2021/08/03 04:47:32;;;;;;;3.03;1.70;;;;;;;12.98;93.18;96596.84;5019840;28;20080;-65
2021/08/03 04:49:57;;;;;;;8.90;1.90;;;;;;;12.70;94.72;96589.22;5021259;28;20069;-64
2021/08/03 04:52:23;;;;;;;6.28;1.90;;;;;;;12.32;97.57;96579.56;5013556;28;20053;-64
2021/08/03 04:54:48;;;;;;;3.08;1.63;;;;;;;12.09;99.64;96582.50;5012144;28;20126;-65
2021/08/03 04:57:14;;;;;;;7.68;2.20;;;;;;;11.92;100.00;96573.75;4997284;28;20153;-66
2021/08/03 04:59:40;;;;;;;3.97;2.03;;;;;;;11.79;100.00;96575.13;4997788;28;20038;-64
2021/08/03 05:02:05;;;;;;;4.05;2.30;;;;;;;11.83;100.00;96574.03;5004202;28;20050;-65
2021/08/03 05:04:34;;;;;;;3.10;2.13;;;;;;;12.00;100.00;96561.66;5007666;28;20037;-65
2021/08/03 05:07:03;;;;;;;3.58;1.95;;;;;;;12.12;100.00;96560.56;5006797;28;20046;-65
2021/08/03 05:09:28;;;;;;;3.97;1.67;;;;;;;12.46;100.00;96571.44;5017639;28;20049;-66
2021/08/03 05:11:54;;;;;;;6.22;2.65;;;;;;;12.65;100.00;96564.06;5020523;28;20406;-66
2021/08/03 05:14:19;;;;;;;5.13;1.92;;;;;;;12.99;99.56;96567.41;5005887;28;20073;-65
2021/08/03 05:16:45;;;;;;;4.75;1.95;;;;;;;13.26;98.03;96565.16;5017407;28;20042;-66
2021/08/03 05:19:10;;;;;;;3.88;1.83;;;;;;;13.41;96.48;96571.50;5016948;28;20526;-65
2021/08/03 05:21:35;;;;;;;3.80;1.80;;;;;;;13.62;95.30;96572.75;5022063;28;20044;-66
2021/08/03 05:24:01;;;;;;;3.13;1.88;;;;;;;13.67;94.27;96573.16;5017810;28;20045;-66
2021/08/03 05:26:26;;;;;;;3.17;1.70;;;;;;;13.71;93.85;96573.94;4998352;28;20046;-66
2021/08/03 05:28:52;;;;;;;7.50;2.13;;;;;;;13.87;93.96;96573.59;5010344;28;20038;-66
2021/08/03 05:31:17;;;;;;;2.63;1.45;;;;;;;14.12;91.87;96567.31;5001842;28;20049;-63
2021/08/03 05:33:42;;;;;;;4.85;1.67;;;;;;;14.28;90.96;96572.44;5009352;28;20103;-64
2021/08/03 05:36:08;;;;;;;4.82;1.50;;;;;;;14.32;90.07;96560.22;5005875;28;20521;-63
2021/08/03 05:38:33;;;;;;;5.40;1.52;;;;;;;14.32;90.26;96562.97;5003512;28;20394;-64
2021/08/03 05:40:59;;;;;;;5.60;1.60;;;;;;;14.33;90.17;96559.06;5019030;28;20056;-65
2021/08/03 05:43:24;;;;;;;3.38;1.80;;;;;;;14.15;91.30;96558.25;5004351;28;20645;-65
2021/08/03 05:45:49;;;;;;;6.57;2.00;;;;;;;13.86;93.75;96561.00;5017980;28;20052;-65
2021/08/03 05:48:15;;;;;;;6.95;1.95;;;;;;;14.11;93.89;96557.47;4989611;28;20037;-65
2021/08/03 05:50:40;;;;;;;3.25;1.77;;;;;;;14.40;92.94;96558.25;5004333;28;20099;-65
2021/08/03 05:53:05;;;;;;;3.70;2.22;;;;;;;14.90;90.29;96551.88;5014024;28;20076;-64
2021/08/03 05:55:31;;;;;;;3.33;1.80;;;;;;;15.47;87.56;96557.16;5017937;28;20410;-64
2021/08/03 05:57:56;;;;;;;5.35;1.70;;;;;;;15.89;85.66;96567.63;5011548;28;20553;-65
2021/08/03 06:00:22;;;;;;;6.35;1.90;;;;;;;16.20;83.81;96568.56;4999605;28;20057;-66
2021/08/03 06:02:47;;;;;;;3.90;1.60;;;;;;;16.13;83.86;96572.16;5009501;28;20133;-65
2021/08/03 06:05:12;;;;;;;5.20;1.70;;;;;;;16.38;83.29;96565.66;4996397;28;20073;-65
2021/08/03 06:07:44;;;;;;;6.18;2.08;;;;;;;16.31;81.68;96568.47;5008143;28;20052;-65
2021/08/03 06:10:15;;;;;;;6.93;1.85;;;;;;;16.22;83.53;96574.47;5014040;28;20037;-65
2021/08/03 06:12:45;;;;;;;7.45;2.47;;;;;;;16.40;83.07;96566.03;5010094;28;20048;-64
2021/08/03 06:15:11;;;;;;;5.95;2.58;;;;;;;15.95;84.97;96565.97;5007656;28;20056;-66
2021/08/03 06:17:37;;;;;;;6.07;2.00;;;;;;;15.76;86.33;96567.31;5018697;28;20041;-65
2021/08/03 06:20:06;;;;;;;4.25;1.85;;;;;;;16.08;85.32;96567.09;5010045;28;20432;-65
2021/08/03 06:22:37;;;;;;;3.13;2.07;;;;;;;16.52;83.75;96560.00;5011661;28;20049;-65
2021/08/03 06:25:04;;;;;;;3.92;1.80;;;;;;;17.00;81.69;96561.13;5012155;28;20732;-64
2021/08/03 06:27:31;;;;;;;3.90;2.00;;;;;;;17.60;79.40;96555.25;5008299;28;20438;-66
2021/08/03 06:30:00;;;;;;;3.17;1.88;;;;;;;18.41;75.83;96568.31;5014011;28;20108;-65
2021/08/03 06:32:27;;;;;;;6.53;2.60;;;;;;;17.20;79.24;96564.84;4998962;28;20038;-64
2021/08/03 06:34:52;;;;;;;3.55;2.03;;;;;;;16.62;84.38;96567.41;4998992;28;20103;-67
2021/08/03 06:37:17;;;;;;;5.00;2.25;;;;;;;16.12;86.41;96562.31;4998138;28;20046;-67
2021/08/03 06:39:43;;;;;;;4.20;2.50;;;;;;;16.27;87.08;96567.72;5013676;28;20462;-66
2021/08/03 06:42:50;;;;;;;5.20;2.40;;;;;;;16.57;85.47;96570.63;5012551;28;20080;-67
2021/08/03 06:45:19;;;;;;;5.55;2.40;;;;;;;17.61;80.67;96562.34;4906876;29;20082;-66
2021/08/03 06:47:56;;;;;;;4.07;1.83;;;;;;;18.20;77.91;96577.75;4988723;28;20038;-67
2021/08/03 06:50:28;;;;;;;3.65;2.05;;;;;;;17.64;80.34;96576.13;5004667;28;20065;-67
2021/08/03 06:52:54;;;;;;;5.30;2.55;;;;;;;16.49;82.29;96571.84;4999199;28;20041;-65
2021/08/03 06:55:28;;;;;;;4.82;2.30;;;;;;;16.35;84.64;96567.25;5022550;28;20052;-65
2021/08/03 06:57:58;;;;;;;5.70;2.45;;;;;;;16.57;83.66;96570.63;5015906;28;20100;-65
2021/08/03 07:00:25;;;;;;;4.90;2.78;;;;;;;16.25;85.13;96566.13;5009449;28;20056;-65
2021/08/03 07:02:52;;;;;;;5.07;2.50;;;;;;;16.72;82.57;96570.47;5013258;28;20578;-66
2021/08/03 07:05:19;;;;;;;4.55;2.35;;;;;;;16.88;81.28;96573.50;5016079;28;20046;-64
2021/08/03 07:07:45;;;;;;;5.38;2.55;;;;;;;16.50;83.61;96567.13;5013289;28;20057;-66
2021/08/03 07:10:12;;;;;;;4.65;2.65;;;;;;;16.59;82.45;96567.44;5006605;28;20579;-64
2021/08/03 07:12:43;;;;;;;7.10;2.97;;;;;;;16.71;81.43;96569.69;5011303;28;20048;-65
2021/08/03 07:15:09;;;;;;;5.97;2.70;;;;;;;17.25;80.19;96560.84;4995393;28;20170;-66
2021/08/03 07:17:35;;;;;;;6.30;2.60;;;;;;;18.61;74.26;96562.81;5002944;28;20060;-66
2021/08/03 07:20:01;;;;;;;7.15;2.75;;;;;;;19.38;70.21;96561.78;4995640;28;20481;-66
2021/08/03 07:22:27;;;;;;;7.50;3.33;;;;;;;19.04;69.55;96564.84;5007459;28;20399;-66
2021/08/03 07:24:53;;;;;;;7.63;4.30;;;;;;;17.95;74.61;96576.13;5007348;28;20127;-66
2021/08/03 07:27:19;;;;;;;5.35;2.67;;;;;;;17.90;75.34;96585.72;4977361;28;20419;-67
2021/08/03 07:29:44;;;;;;;4.88;2.33;;;;;;;18.36;74.33;96588.97;4999984;28;20052;-65
2021/08/03 07:32:12;;;;;;;6.28;2.30;;;;;;;18.86;71.47;96587.38;5003329;28;20069;-65
2021/08/03 07:34:38;;;;;;;4.47;2.53;;;;;;;20.10;66.79;96576.91;5011343;28;20495;-67
2021/08/03 07:37:05;;;;;;;4.78;2.00;;;;;;;21.52;63.07;96584.81;5016005;28;20513;-65
2021/08/03 07:39:31;;;;;;;3.05;1.80;;;;;;;22.49;58.90;96576.28;4996252;28;20120;-65
2021/08/03 07:41:58;;;;;;;5.28;2.28;;;;;;;23.13;55.67;96580.91;5011155;28;20121;-67
2021/08/03 07:44:24;;;;;;;4.25;1.90;;;;;;;24.19;52.58;96582.19;4994435;28;20673;-67
2021/08/03 07:46:51;;;;;;;5.38;2.40;;;;;;;24.82;49.74;96576.47;5010677;28;20034;-67
2021/08/03 07:49:17;;;;;;;4.85;2.28;;;;;;;24.41;50.90;96582.88;5012296;28;20042;-65
2021/08/03 07:51:43;;;;;;;4.00;2.45;;;;;;;25.19;48.26;96580.84;5023241;28;20041;-65
2021/08/03 07:54:08;;;;;;;6.15;2.63;;;;;;;24.82;49.05;96579.28;4980225;28;20533;-65
2021/08/03 07:56:34;;;;;;;6.05;2.30;;;;;;;24.65;50.06;96581.56;5012766;28;20071;-65
2021/08/03 07:59:01;;;;;;;4.05;2.15;;;;;;;25.51;48.02;96578.66;5015458;28;20441;-66
2021/08/03 08:01:26;;;;;;;5.25;1.80;;;;;;;24.80;49.65;96579.75;5010582;28;20049;-66
2021/08/03 08:03:52;;;;;;;5.88;2.03;;;;;;;23.61;52.69;96575.22;5011368;28;20045;-66
2021/08/03 08:06:17;;;;;;;3.47;1.80;;;;;;;24.53;50.51;96581.25;4995618;28;20064;-66
2021/08/03 08:08:43;;;;;;;4.00;1.58;;;;;;;24.75;49.42;96583.16;5022407;28;20076;-67
2021/08/03 08:11:09;;;;;;;7.65;2.35;;;;;;;25.17;47.94;96569.34;5002267;28;20048;-65
2021/08/03 08:13:34;;;;;;;5.45;3.30;;;;;;;24.76;49.03;96576.31;5003555;28;20486;-66
2021/08/03 08:16:00;;;;;;;6.47;4.03;;;;;;;25.77;46.56;96578.31;4999672;28;20042;-66
2021/08/03 08:18:26;;;;;;;5.50;2.30;;;;;;;25.46;46.14;96573.72;5002954;28;20091;-65
2021/08/03 08:20:51;;;;;;;5.55;1.83;;;;;;;25.08;48.94;96572.13;5017589;28;20084;-65
2021/08/03 08:23:17;;;;;;;4.80;2.00;;;;;;;23.72;50.85;96580.41;5026366;28;20045;-65
2021/08/03 08:25:42;;;;;;;5.13;2.00;;;;;;;23.74;51.48;96573.09;5006417;28;20084;-66
2021/08/03 08:28:09;;;;;;;4.65;1.98;;;;;;;25.15;48.19;96571.81;5017931;28;20083;-65
2021/08/03 08:30:36;;;;;;;3.95;2.10;;;;;;;24.09;50.30;96572.19;5020615;28;20140;-66
2021/08/03 08:33:02;;;;;;;4.53;2.17;;;;;;;25.54;47.39;96566.50;5004981;28;20038;-66
2021/08/03 08:35:28;;;;;;;3.00;1.60;;;;;;;26.30;45.37;96560.22;5020921;28;20049;-64
2021/08/03 08:37:53;;;;;;;3.10;1.80;;;;;;;28.23;39.21;96557.03;5022997;28;20129;-65
2021/08/03 08:40:19;;;;;;;3.65;1.77;;;;;;;27.25;41.38;96563.50;5017522;28;20041;-65
2021/08/03 08:42:46;;;;;;;2.20;1.63;;;;;;;27.83;39.47;96567.63;5022177;28;20124;-65
2021/08/03 08:45:15;;;;;;;2.83;1.50;;;;;;;26.94;42.36;96567.50;5017214;28;20077;-65
2021/08/03 08:47:46;;;;;;;3.33;1.77;;;;;;;25.08;46.31;96565.75;5022307;28;20045;-66
2021/08/03 08:50:14;;;;;;;6.32;2.30;;;;;;;24.89;46.58;96564.97;4984959;28;20045;-65
2021/08/03 08:52:41;;;;;;;4.95;1.85;;;;;;;25.57;45.42;96559.19;5022410;28;20107;-65
2021/08/03 08:55:09;;;;;;;4.30;1.70;;;;;;;25.07;47.04;96550.97;5016869;28;20105;-66
2021/08/03 08:57:34;;;;;;;6.07;2.65;;;;;;;25.41;46.58;96549.09;5020211;28;20065;-65
2021/08/03 09:00:00;;;;;;;6.13;1.95;;;;;;;24.49;48.43;96547.00;5003919;28;20442;-66
2021/08/03 09:02:43;;;;;;;5.40;2.03;;;;;;;24.76;47.59;96545.53;4996986;28;20116;-67
2021/08/03 09:05:11;;;;;;;5.85;1.55;;;;;;;24.78;48.16;96545.84;5008748;28;20038;-64
2021/08/03 09:07:50;;;;;;;2.90;1.70;;;;;;;25.14;47.21;96538.69;5017683;28;20057;-66
2021/08/03 09:10:35;;;;;;;5.22;1.60;;;;;;;25.18;47.54;96547.69;4999776;28;20038;-65
2021/08/03 09:13:17;;;;;;;3.47;1.80;;;;;;;25.04;48.38;96542.72;5002274;28;20115;-66
2021/08/03 09:15:46;;;;;;;4.35;1.65;;;;;;;25.12;48.16;96543.94;5002238;28;20034;-64
2021/08/03 09:18:28;;;;;;;3.20;1.93;;;;;;;26.00;46.14;96545.22;4998559;28;20045;-65
2021/08/03 09:20:53;;;;;;;3.05;1.92;;;;;;;25.35;47.41;96543.34;5003738;28;20046;-64
2021/08/03 09:23:20;;;;;;;6.93;1.70;;;;;;;25.75;46.45;96544.34;4998096;28;20073;-66
2021/08/03 09:25:54;;;;;;;5.90;1.52;;;;;;;25.61;46.59;96536.59;5002091;28;20038;-68
2021/08/03 09:28:20;;;;;;;6.63;1.73;;;;;;;25.08;49.14;96543.34;4999868;28;20045;-64
2021/08/03 09:30:45;;;;;;;4.75;1.92;;;;;;;24.33;50.30;96550.84;5013412;28;20054;-65
2021/08/03 09:33:20;;;;;;;6.35;2.00;;;;;;;24.03;52.56;96544.06;4997485;28;20609;-63
2021/08/03 09:35:46;;;;;;;4.82;1.80;;;;;;;23.95;52.69;96551.16;5002767;28;20116;-65
2021/08/03 09:38:19;;;;;;;3.30;2.00;;;;;;;24.20;51.27;96547.38;4979447;28;20124;-64
2021/08/03 09:40:46;;;;;;;3.63;1.92;;;;;;;24.39;50.42;96553.81;5002319;28;20080;-64
2021/08/03 09:43:13;;;;;;;5.47;2.50;;;;;;;24.09;52.75;96549.81;4995398;28;20073;-66
2021/08/03 09:45:41;;;;;;;4.22;2.38;;;;;;;23.23;55.44;96563.00;5001547;28;20045;-65
2021/08/03 09:48:07;;;;;;;4.20;2.22;;;;;;;23.84;53.45;96560.75;4990412;28;20041;-65
2021/08/03 09:50:52;;;;;;;3.43;1.80;;;;;;;24.38;51.45;96560.63;4984253;28;20384;-64
2021/08/03 09:53:51;;;;;;;5.18;2.45;;;;;;;24.48;50.75;96558.66;4995327;28;20299;-64
2021/08/03 09:56:23;;;;;;;4.57;2.30;;;;;;;24.58;50.92;96554.66;4991618;28;20050;-65
2021/08/03 09:58:57;;;;;;;5.07;1.73;;;;;;;24.72;49.68;96539.28;4984730;28;20046;-66
2021/08/03 10:01:27;;;;;;;4.30;2.00;;;;;;;26.15;47.60;96539.72;4996294;28;20042;-64
2021/08/03 10:03:57;;;;;;;5.15;2.28;;;;;;;26.47;44.66;96552.94;5000080;28;20041;-64
2021/08/03 10:06:22;;;;;;;3.90;1.80;;;;;;;26.03;45.34;96541.47;4996005;28;20512;-66
2021/08/03 10:08:49;;;;;;;3.08;1.80;;;;;;;25.76;46.96;96540.28;5001568;28;20046;-67
2021/08/03 10:11:16;;;;;;;3.83;1.60;;;;;;;27.11;41.85;96539.72;4978951;28;20077;-66
2021/08/03 10:13:43;;;;;;;3.25;1.40;;;;;;;27.15;43.00;96540.31;5001208;28;20045;-65
2021/08/03 10:16:08;;;;;;;4.05;2.03;;;;;;;26.24;44.75;96534.06;4995133;28;20108;-63
2021/08/03 10:18:37;;;;;;;2.40;1.52;;;;;;;26.45;42.71;96535.81;5001360;28;20121;-65
2021/08/03 10:21:04;;;;;;;2.72;1.70;;;;;;;26.68;42.34;96534.25;4997457;28;20045;-63
2021/08/03 10:23:32;;;;;;;2.42;1.45;;;;;;;26.37;42.60;96537.41;5000561;28;20161;-65
2021/08/03 10:25:58;;;;;;;3.97;1.52;;;;;;;25.66;44.20;96521.91;5002259;28;20045;-65
2021/08/03 10:28:26;;;;;;;3.58;1.88;;;;;;;25.94;42.98;96529.03;4997173;28;21043;-64
2021/08/03 10:30:54;;;;;;;2.95;1.77;;;;;;;26.00;42.76;96529.19;4983977;28;20050;-65
2021/08/03 10:33:44;;;;;;;2.67;1.73;;;;;;;25.79;44.03;96518.94;4996517;28;20056;-64
2021/08/03 10:36:45;;;;;;;3.25;1.60;;;;;;;25.84;43.20;96516.28;4996653;28;20053;-65
2021/08/03 10:39:13;;;;;;;3.05;1.60;;;;;;;24.96;44.80;96514.25;4955173;28;20434;-65
2021/08/03 10:41:56;;;;;;;5.20;1.92;;;;;;;25.14;44.75;96510.66;5015764;28;20495;-67
2021/08/03 10:44:43;;;;;;;2.97;1.48;;;;;;;25.26;44.75;96503.34;5014760;28;20501;-65
2021/08/03 10:47:30;;;;;;;3.20;1.50;;;;;;;25.59;44.44;96494.22;5014642;28;20084;-65
2021/08/03 10:49:57;;;;;;;3.08;1.88;;;;;;;25.78;43.33;96497.75;5020891;28;20569;-65
2021/08/03 10:52:44;;;;;;;3.20;1.50;;;;;;;25.47;45.00;96498.78;4997987;28;20902;-65
2021/08/03 10:55:35;;;;;;;2.67;1.50;;;;;;;25.09;44.91;96503.63;5013344;28;20061;-65
2021/08/03 10:58:13;;;;;;;3.22;1.60;;;;;;;25.31;43.84;96502.72;5020740;28;20052;-65
2021/08/03 11:00:56;;;;;;;4.15;1.38;;;;;;;24.35;48.01;96503.56;5020116;28;20059;-64
2021/08/03 11:03:34;;;;;;;2.60;1.20;;;;;;;24.38;47.50;96501.84;5013829;28;20081;-66
2021/08/03 11:06:05;;;;;;;3.58;1.52;;;;;;;24.34;47.71;96506.84;5004618;28;20064;-65
2021/08/03 11:08:35;;;;;;;2.35;1.27;;;;;;;24.34;48.23;96501.25;4998139;28;20046;-65
2021/08/03 11:11:06;;;;;;;3.08;1.48;;;;;;;24.23;47.43;96498.88;5020374;28;20042;-68
2021/08/03 11:13:34;;;;;;;3.15;1.63;;;;;;;23.98;47.82;96497.09;5021863;28;20046;-66
2021/08/03 11:16:00;;;;;;;3.50;1.60;;;;;;;24.26;46.38;96494.41;5021212;28;20494;-66
2021/08/03 11:18:39;;;;;;;3.53;1.65;;;;;;;24.39;47.01;96500.63;5014439;28;20124;-66
2021/08/03 11:21:05;;;;;;;3.85;1.40;;;;;;;24.14;48.10;96496.84;5014042;28;20053;-64
2021/08/03 11:23:56;;;;;;;2.97;1.50;;;;;;;23.73;49.02;96489.66;5020735;28;20473;-66
2021/08/03 11:26:23;;;;;;;6.80;3.20;;;;;;;23.92;48.95;96485.75;5009671;28;20727;-65
2021/08/03 11:29:04;;;;;;;2.95;1.52;;;;;;;23.81;49.55;96474.97;5002724;28;20052;-66
2021/08/03 11:31:52;;;;;;;4.10;2.25;;;;;;;23.60;48.85;96473.00;5016852;28;20053;-66
2021/08/03 11:34:34;;;;;;;3.10;1.77;;;;;;;23.59;49.42;96474.25;5013532;28;20080;-66
2021/08/03 11:37:09;;;;;;;2.45;1.75;;;;;;;23.83;48.54;96471.72;5020223;28;20037;-66
2021/08/03 11:39:38;;;;;;;3.00;1.67;;;;;;;24.04;48.29;96470.09;4999329;28;20503;-66
2021/08/03 11:42:05;;;;;;;2.93;1.80;;;;;;;23.94;47.14;96471.31;5013155;28;20124;-64